Time;durP1;ratioP1;P1;durP2;ratioP2;P2;SDS_P1;SDS_P2;PMS_P1;PMS_P2;Temp;Humidity;BMP_temperature;BMP_pressure;BME280_temperature;BME280_humidity;BME280_pressure;Samples;Min_cycle;Max_cycle;Signal;HPM_P1;HPM_P2
2023/01/08 00:00:39;;;;;;;4.30;2.70;;;;;;;;;;5076913;28;20205;-79
2023/01/08 00:03:04;;;;;;;3.13;2.83;;;;;;;;;;5062080;28;20295;-78
2023/01/08 00:05:29;;;;;;;2.90;2.60;;;;;;;;;;5078561;28;20197;-79
2023/01/08 00:07:54;;;;;;;4.30;3.63;;;;;;;;;;5080038;28;20181;-79
2023/01/08 00:10:20;;;;;;;3.00;2.73;;;;;;;;;;5078147;28;20185;-78
2023/01/08 00:12:45;;;;;;;5.93;3.10;;;;;;;;;;5074598;28;20185;-79
2023/01/08 00:15:10;;;;;;;3.13;2.73;;;;;;;;;;5068391;28;20258;-79
2023/01/08 00:17:35;;;;;;;4.13;3.13;;;;;;;;;;5073035;28;20200;-78
2023/01/08 00:20:00;;;;;;;3.13;2.83;;;;;;;;;;5083457;28;20233;-78
2023/01/08 00:22:26;;;;;;;3.03;2.67;;;;;;;;;;5066609;28;20368;-79
2023/01/08 00:24:51;;;;;;;3.10;2.60;;;;;;;;;;5070636;28;20377;-78
2023/01/08 00:27:16;;;;;;;3.47;3.10;;;;;;;;;;5068856;28;20183;-78
2023/01/08 00:29:41;;;;;;;3.03;2.70;;;;;;;;;;5081442;28;20208;-79
2023/01/08 00:32:06;;;;;;;3.00;2.70;;;;;;;;;;5074301;28;20185;-79
2023/01/08 00:34:32;;;;;;;4.40;2.97;;;;;;;;;;5070758;28;20286;-79
2023/01/08 00:36:57;;;;;;;4.33;3.17;;;;;;;;;;5066711;28;20202;-80
2023/01/08 00:39:22;;;;;;;4.70;3.10;;;;;;;;;;5078419;28;20197;-79
2023/01/08 00:41:48;;;;;;;3.97;2.97;;;;;;;;;;5079511;28;20184;-79
2023/01/08 00:44:13;;;;;;;3.10;2.80;;;;;;;;;;5061468;28;20235;-78
2023/01/08 00:46:39;;;;;;;3.03;2.80;;;;;;;;;;5059132;28;20182;-80
2023/01/08 00:49:04;;;;;;;3.37;3.07;;;;;;;;;;5083858;28;20183;-78
2023/01/08 00:51:29;;;;;;;3.30;2.83;;;;;;;;;;5077051;28;20201;-78
2023/01/08 00:53:54;;;;;;;3.37;2.70;;;;;;;;;;5078761;28;20414;-79
2023/01/08 00:56:19;;;;;;;3.43;3.03;;;;;;;;;;5063233;28;20210;-80
2023/01/08 00:58:45;;;;;;;2.63;2.43;;;;;;;;;;5066237;28;20181;-79
2023/01/08 01:01:11;;;;;;;3.90;3.17;;;;;;;;;;5071970;28;20193;-80
2023/01/08 01:03:37;;;;;;;6.70;3.17;;;;;;;;;;5061469;28;20167;-79
2023/01/08 01:06:03;;;;;;;4.03;3.10;;;;;;;;;;5071359;28;20189;-79
2023/01/08 01:08:28;;;;;;;4.03;3.13;;;;;;;;;;5067821;28;20185;-79
2023/01/08 01:10:53;;;;;;;3.57;3.03;;;;;;;;;;5073356;28;20183;-79
2023/01/08 01:13:18;;;;;;;3.57;3.00;;;;;;;;;;5070755;28;20292;-79
2023/01/08 01:15:44;;;;;;;3.10;2.70;;;;;;;;;;5060867;28;20195;-79
2023/01/08 01:18:09;;;;;;;3.40;3.10;;;;;;;;;;5068306;28;20215;-78
2023/01/08 01:20:35;;;;;;;4.30;3.90;;;;;;;;;;5066015;28;20173;-79
2023/01/08 01:23:00;;;;;;;3.90;3.30;;;;;;;;;;5085793;28;20215;-80
2023/01/08 01:25:25;;;;;;;4.20;3.80;;;;;;;;;;5067436;28;20207;-80
2023/01/08 01:27:50;;;;;;;3.57;3.23;;;;;;;;;;5071376;28;20210;-79
2023/01/08 01:30:15;;;;;;;3.90;3.30;;;;;;;;;;5077277;28;20184;-79
2023/01/08 01:32:41;;;;;;;4.03;3.43;;;;;;;;;;5082857;28;20176;-78
2023/01/08 01:35:06;;;;;;;3.50;3.20;;;;;;;;;;5071990;28;20290;-79
2023/01/08 01:37:31;;;;;;;2.80;2.60;;;;;;;;;;5066409;28;20220;-79
2023/01/08 01:39:57;;;;;;;4.30;3.00;;;;;;;;;;5067744;28;20200;-79
2023/01/08 01:42:41;;;;;;;3.30;3.00;;;;;;;;;;5069725;28;20240;-78
2023/01/08 01:45:09;;;;;;;3.50;3.10;;;;;;;;;;5058043;28;20180;-80
2023/01/08 01:47:36;;;;;;;3.20;2.90;;;;;;;;;;5068393;28;20178;-79
2023/01/08 01:50:28;;;;;;;6.23;3.50;;;;;;;;;;5059519;28;20174;-79
2023/01/08 01:53:16;;;;;;;4.47;3.17;;;;;;;;;;5066628;28;20198;-79
2023/01/08 01:55:42;;;;;;;4.37;3.33;;;;;;;;;;5080213;28;20184;-79
2023/01/08 01:58:10;;;;;;;3.90;3.13;;;;;;;;;;5075609;28;20207;-79
2023/01/08 02:00:36;;;;;;;3.20;2.90;;;;;;;;;;5064311;28;20183;-78
2023/01/08 02:03:01;;;;;;;4.37;3.27;;;;;;;;;;5071444;28;20175;-79
2023/01/08 02:05:30;;;;;;;3.00;2.70;;;;;;;;;;5066781;28;20184;-79
2023/01/08 02:08:00;;;;;;;3.10;2.80;;;;;;;;;;5061976;28;20186;-79
2023/01/08 02:10:33;;;;;;;4.57;2.77;;;;;;;;;;5063281;28;20250;-79
2023/01/08 02:13:03;;;;;;;3.43;3.13;;;;;;;;;;5070475;28;20175;-78
2023/01/08 02:15:45;;;;;;;3.17;2.53;;;;;;;;;;5068956;28;20184;-79
2023/01/08 02:18:33;;;;;;;2.93;2.47;;;;;;;;;;5088900;28;20207;-79
2023/01/08 02:21:14;;;;;;;2.97;2.73;;;;;;;;;;5080733;28;20175;-79
2023/01/08 02:23:56;;;;;;;3.53;3.10;;;;;;;;;;5062609;28;20186;-79
2023/01/08 02:26:31;;;;;;;3.93;3.00;;;;;;;;;;5064015;28;20268;-79
2023/01/08 02:28:58;;;;;;;3.37;3.00;;;;;;;;;;5069646;28;20180;-79
2023/01/08 02:31:25;;;;;;;4.53;2.77;;;;;;;;;;5079848;28;20177;-79
2023/01/08 02:33:50;;;;;;;3.13;2.83;;;;;;;;;;5071985;28;20310;-79
2023/01/08 02:36:24;;;;;;;4.03;3.63;;;;;;;;;;5075984;28;20273;-78
2023/01/08 02:38:56;;;;;;;4.40;3.10;;;;;;;;;;5064288;28;20287;-80
2023/01/08 02:41:22;;;;;;;3.70;3.17;;;;;;;;;;5078493;28;20248;-79
2023/01/08 02:43:52;;;;;;;3.07;2.77;;;;;;;;;;5077332;28;20173;-79
2023/01/08 02:46:19;;;;;;;3.30;3.00;;;;;;;;;;5071586;28;20207;-79
2023/01/08 02:48:47;;;;;;;3.33;3.00;;;;;;;;;;5080117;28;20227;-80
2023/01/08 02:51:27;;;;;;;3.20;2.90;;;;;;;;;;5068621;28;20198;-79
2023/01/08 02:53:56;;;;;;;4.63;2.90;;;;;;;;;;5073754;28;20193;-80
2023/01/08 02:56:33;;;;;;;3.40;3.10;;;;;;;;;;5080212;28;20181;-79
2023/01/08 02:58:59;;;;;;;3.73;3.20;;;;;;;;;;5059035;28;20214;-79
2023/01/08 03:01:26;;;;;;;3.53;3.20;;;;;;;;;;5072804;28;20272;-80
2023/01/08 03:04:11;;;;;;;3.50;2.90;;;;;;;;;;5070959;28;20175;-79
2023/01/08 03:06:37;;;;;;;3.07;2.70;;;;;;;;;;5086481;28;20194;-80
2023/01/08 03:09:02;;;;;;;3.23;2.47;;;;;;;;;;5068520;28;20228;-81
2023/01/08 03:11:33;;;;;;;3.13;2.83;;;;;;;;;;5071322;28;20191;-79
2023/01/08 03:13:58;;;;;;;2.53;2.30;;;;;;;;;;5073334;28;20215;-79
2023/01/08 03:16:26;;;;;;;2.67;2.47;;;;;;;;;;5071834;28;20215;-79
2023/01/08 03:18:56;;;;;;;3.20;2.90;;;;;;;;;;5067417;28;20179;-79
2023/01/08 03:21:21;;;;;;;2.50;2.30;;;;;;;;;;5088451;28;20183;-79
2023/01/08 03:23:47;;;;;;;2.37;2.20;;;;;;;;;;5063577;28;20573;-79
2023/01/08 03:26:14;;;;;;;2.67;2.47;;;;;;;;;;5073376;28;20203;-79
2023/01/08 03:28:43;;;;;;;7.27;2.40;;;;;;;;;;5079772;28;20175;-79
2023/01/08 03:31:08;;;;;;;8.77;3.00;;;;;;;;;;5076284;28;20653;-79
2023/01/08 03:33:34;;;;;;;3.47;3.03;;;;;;;;;;5068062;28;20247;-79
2023/01/08 03:36:01;;;;;;;3.47;3.17;;;;;;;;;;5072253;28;20303;-79
2023/01/08 03:38:29;;;;;;;5.60;2.70;;;;;;;;;;5065107;28;20206;-79
2023/01/08 03:40:56;;;;;;;2.80;2.60;;;;;;;;;;5067796;28;20183;-80
2023/01/08 03:43:22;;;;;;;3.93;3.13;;;;;;;;;;5076896;28;20187;-80
2023/01/08 03:46:08;;;;;;;2.83;2.50;;;;;;;;;;5068990;28;20169;-79
2023/01/08 03:48:34;;;;;;;2.90;2.60;;;;;;;;;;5076136;28;20188;-79
2023/01/08 03:50:59;;;;;;;3.07;2.57;;;;;;;;;;5064552;28;20179;-80
2023/01/08 03:53:24;;;;;;;3.63;2.70;;;;;;;;;;5093807;28;20297;-79
2023/01/08 03:55:49;;;;;;;2.43;2.17;;;;;;;;;;5080613;28;20268;-79
2023/01/08 03:58:15;;;;;;;3.03;2.63;;;;;;;;;;5066116;28;20266;-79
2023/01/08 04:00:40;;;;;;;2.93;2.60;;;;;;;;;;5073848;28;20176;-79
2023/01/08 04:03:05;;;;;;;2.90;2.60;;;;;;;;;;5071963;28;20176;-79
2023/01/08 04:05:30;;;;;;;2.60;2.20;;;;;;;;;;5069642;28;20276;-79
2023/01/08 04:07:56;;;;;;;2.50;2.30;;;;;;;;;;5066736;28;20299;-78
2023/01/08 04:10:21;;;;;;;3.47;2.50;;;;;;;;;;5071536;28;20184;-78
2023/01/08 04:12:46;;;;;;;3.10;2.73;;;;;;;;;;5070270;28;20175;-79
2023/01/08 04:15:12;;;;;;;2.90;2.70;;;;;;;;;;5062888;28;20251;-78
2023/01/08 04:17:37;;;;;;;3.90;2.80;;;;;;;;;;5081158;28;20265;-78
2023/01/08 04:20:03;;;;;;;3.83;2.43;;;;;;;;;;5082852;28;20180;-78
2023/01/08 04:22:28;;;;;;;2.90;2.70;;;;;;;;;;5060330;28;20185;-78
2023/01/08 04:24:53;;;;;;;2.67;2.47;;;;;;;;;;5078299;28;20169;-78
2023/01/08 04:27:18;;;;;;;3.67;2.50;;;;;;;;;;5074740;28;20181;-78
2023/01/08 04:29:43;;;;;;;4.13;2.47;;;;;;;;;;5082174;28;20205;-78
2023/01/08 04:32:09;;;;;;;3.00;2.43;;;;;;;;;;5069423;28;20737;-79
2023/01/08 04:34:34;;;;;;;3.13;2.70;;;;;;;;;;5083146;28;20223;-78
2023/01/08 04:37:00;;;;;;;2.70;2.50;;;;;;;;;;5063937;28;20225;-79
2023/01/08 04:39:26;;;;;;;3.87;2.73;;;;;;;;;;5074393;28;20183;-79
2023/01/08 04:41:51;;;;;;;5.33;2.70;;;;;;;;;;5068050;28;20187;-79
2023/01/08 04:44:16;;;;;;;3.57;2.90;;;;;;;;;;5079540;28;20193;-78
2023/01/08 04:46:41;;;;;;;2.80;2.27;;;;;;;;;;5062317;28;20193;-79
2023/01/08 04:49:06;;;;;;;3.50;2.73;;;;;;;;;;5068444;28;20176;-79
2023/01/08 04:51:31;;;;;;;4.20;2.80;;;;;;;;;;5064980;28;20182;-79
2023/01/08 04:53:57;;;;;;;3.03;2.73;;;;;;;;;;5073940;28;20181;-79
2023/01/08 04:56:22;;;;;;;2.97;2.73;;;;;;;;;;5062173;28;20183;-79
2023/01/08 04:58:47;;;;;;;4.60;2.60;;;;;;;;;;5064346;28;20188;-79
2023/01/08 05:01:32;;;;;;;3.13;2.30;;;;;;;;;;5066801;28;20192;-79
2023/01/08 05:03:59;;;;;;;2.70;2.50;;;;;;;;;;5065360;28;20198;-79
2023/01/08 05:06:24;;;;;;;3.30;2.70;;;;;;;;;;5071716;28;20194;-79
2023/01/08 05:08:49;;;;;;;2.80;2.50;;;;;;;;;;5065987;28;20185;-78
2023/01/08 05:11:15;;;;;;;3.63;2.40;;;;;;;;;;5075813;28;20180;-79
2023/01/08 05:13:40;;;;;;;2.40;2.20;;;;;;;;;;5063156;28;20174;-79
2023/01/08 05:16:06;;;;;;;2.40;2.20;;;;;;;;;;5068121;28;20193;-79
2023/01/08 05:18:31;;;;;;;2.70;2.30;;;;;;;;;;5070123;28;20228;-78
2023/01/08 05:21:00;;;;;;;2.90;2.60;;;;;;;;;;5069546;28;20183;-79
2023/01/08 05:23:26;;;;;;;2.60;2.40;;;;;;;;;;5071111;28;20188;-79
2023/01/08 05:25:51;;;;;;;2.60;2.40;;;;;;;;;;5068389;28;20230;-78
2023/01/08 05:28:16;;;;;;;3.57;2.00;;;;;;;;;;5067648;28;20282;-79
2023/01/08 05:30:41;;;;;;;2.60;2.40;;;;;;;;;;5078329;28;20182;-79
2023/01/08 05:33:06;;;;;;;3.33;2.60;;;;;;;;;;5068388;28;20269;-79
2023/01/08 05:35:32;;;;;;;2.60;2.40;;;;;;;;;;5064971;28;20260;-79
2023/01/08 05:37:58;;;;;;;2.60;2.40;;;;;;;;;;5060156;28;20203;-78
2023/01/08 05:40:23;;;;;;;2.57;2.37;;;;;;;;;;5070132;28;20179;-79
2023/01/08 05:42:48;;;;;;;2.37;2.17;;;;;;;;;;5075561;28;20179;-79
2023/01/08 05:45:15;;;;;;;2.20;2.00;;;;;;;;;;5065955;28;20181;-79
2023/01/08 05:47:40;;;;;;;2.57;1.97;;;;;;;;;;5061649;28;20266;-79
2023/01/08 05:50:06;;;;;;;2.90;2.00;;;;;;;;;;5062940;28;20268;-79
2023/01/08 05:52:31;;;;;;;2.37;2.07;;;;;;;;;;5065563;28;20247;-79
2023/01/08 05:54:58;;;;;;;2.03;1.93;;;;;;;;;;5087929;28;20229;-78
2023/01/08 05:57:24;;;;;;;2.00;1.80;;;;;;;;;;5071437;28;20302;-79
2023/01/08 05:59:49;;;;;;;2.47;1.90;;;;;;;;;;5069974;28;20264;-78
2023/01/08 06:02:14;;;;;;;1.90;1.80;;;;;;;;;;5069813;28;20207;-78
2023/01/08 06:04:39;;;;;;;1.90;1.70;;;;;;;;;;5063457;28;20170;-79
2023/01/08 06:07:05;;;;;;;1.70;1.60;;;;;;;;;;5061272;28;20191;-80
2023/01/08 06:09:30;;;;;;;1.67;1.30;;;;;;;;;;5067596;28;22131;-78
2023/01/08 06:11:56;;;;;;;1.80;1.40;;;;;;;;;;5068927;28;21863;-79
2023/01/08 06:14:22;;;;;;;1.43;1.33;;;;;;;;;;5062573;28;20185;-78
2023/01/08 06:16:47;;;;;;;1.43;1.30;;;;;;;;;;5064432;28;20196;-79
2023/01/08 06:19:12;;;;;;;1.30;1.20;;;;;;;;;;5070040;28;20217;-78
2023/01/08 06:21:38;;;;;;;1.57;1.20;;;;;;;;;;5069648;28;20198;-79
2023/01/08 06:24:03;;;;;;;1.30;1.20;;;;;;;;;;5077714;28;20263;-79
2023/01/08 06:26:28;;;;;;;1.10;1.10;;;;;;;;;;5084465;28;20177;-79
2023/01/08 06:28:54;;;;;;;2.33;1.50;;;;;;;;;;5071711;28;20171;-79
2023/01/08 06:31:19;;;;;;;1.60;1.50;;;;;;;;;;5072566;28;20294;-78
2023/01/08 06:33:44;;;;;;;1.97;1.87;;;;;;;;;;5072664;28;20533;-78
2023/01/08 06:36:10;;;;;;;1.70;1.60;;;;;;;;;;5079191;28;20200;-79
2023/01/08 06:38:35;;;;;;;1.43;1.33;;;;;;;;;;5071069;28;20263;-78
2023/01/08 06:41:04;;;;;;;1.50;1.40;;;;;;;;;;5068313;28;20222;-79
2023/01/08 06:43:29;;;;;;;1.83;1.70;;;;;;;;;;5064876;28;20255;-78
2023/01/08 06:45:57;;;;;;;1.53;1.43;;;;;;;;;;5071099;28;20177;-79
2023/01/08 06:48:23;;;;;;;1.60;1.50;;;;;;;;;;5074546;28;20227;-79
2023/01/08 06:50:48;;;;;;;1.80;1.47;;;;;;;;;;5082221;28;20181;-78
2023/01/08 06:53:13;;;;;;;1.83;1.70;;;;;;;;;;5072126;28;20200;-78
2023/01/08 06:55:38;;;;;;;1.77;1.63;;;;;;;;;;5062972;28;20180;-79
2023/01/08 06:58:04;;;;;;;2.50;2.30;;;;;;;;;;5069604;28;20204;-78
2023/01/08 07:00:29;;;;;;;1.90;1.80;;;;;;;;;;5075935;28;20249;-79
2023/01/08 07:02:54;;;;;;;2.63;2.43;;;;;;;;;;5070841;28;20175;-78
2023/01/08 07:05:20;;;;;;;1.97;1.80;;;;;;;;;;5068198;28;20204;-78
2023/01/08 07:07:45;;;;;;;2.33;1.87;;;;;;;;;;5067983;28;20207;-78
2023/01/08 07:10:11;;;;;;;1.80;1.70;;;;;;;;;;5069012;28;20184;-79
2023/01/08 07:12:36;;;;;;;1.53;1.43;;;;;;;;;;5072424;28;20181;-79
2023/01/08 07:15:01;;;;;;;2.80;1.80;;;;;;;;;;5066599;28;20271;-80
2023/01/08 07:17:27;;;;;;;1.60;1.50;;;;;;;;;;5060123;28;20209;-79
2023/01/08 07:19:52;;;;;;;2.23;2.00;;;;;;;;;;5070935;28;20211;-79
2023/01/08 07:22:17;;;;;;;2.10;1.90;;;;;;;;;;5075551;28;20200;-79
2023/01/08 07:24:42;;;;;;;3.70;2.20;;;;;;;;;;5071251;28;20202;-78
2023/01/08 07:27:07;;;;;;;2.47;2.27;;;;;;;;;;5066905;28;20208;-79
2023/01/08 07:29:33;;;;;;;2.40;2.20;;;;;;;;;;5064872;28;20195;-79
2023/01/08 07:31:58;;;;;;;1.67;1.53;;;;;;;;;;5062298;28;20291;-79
2023/01/08 07:34:23;;;;;;;2.03;1.87;;;;;;;;;;5061923;28;20232;-78
2023/01/08 07:36:48;;;;;;;2.43;1.97;;;;;;;;;;5081503;28;20298;-79
2023/01/08 07:39:14;;;;;;;2.57;2.20;;;;;;;;;;5067463;28;20181;-79
2023/01/08 07:41:39;;;;;;;2.10;2.00;;;;;;;;;;5063904;28;20165;-79
2023/01/08 07:44:04;;;;;;;2.27;1.73;;;;;;;;;;5078702;28;20206;-79
2023/01/08 07:46:29;;;;;;;2.33;2.13;;;;;;;;;;5062262;28;20185;-79
2023/01/08 07:48:55;;;;;;;1.63;1.53;;;;;;;;;;5080863;28;20180;-79
2023/01/08 07:51:20;;;;;;;1.57;1.47;;;;;;;;;;5067531;28;20204;-79
2023/01/08 07:53:45;;;;;;;1.63;1.53;;;;;;;;;;5072023;28;20210;-78
2023/01/08 07:56:11;;;;;;;1.57;1.47;;;;;;;;;;5068871;28;20177;-78
2023/01/08 07:58:36;;;;;;;1.80;1.70;;;;;;;;;;5067664;28;20194;-79
2023/01/08 08:01:02;;;;;;;1.60;1.50;;;;;;;;;;5082343;28;20205;-79
2023/01/08 08:03:27;;;;;;;1.43;1.30;;;;;;;;;;5069802;28;20181;-78
2023/01/08 08:05:53;;;;;;;1.60;1.50;;;;;;;;;;5080076;28;20181;-78
2023/01/08 08:08:18;;;;;;;1.93;1.30;;;;;;;;;;5069306;28;20178;-79
2023/01/08 08:10:44;;;;;;;1.43;1.33;;;;;;;;;;5067131;28;20265;-78
2023/01/08 08:13:09;;;;;;;1.20;1.10;;;;;;;;;;5060916;28;20192;-78
2023/01/08 08:15:35;;;;;;;1.30;1.20;;;;;;;;;;5068173;28;20175;-78
2023/01/08 08:18:01;;;;;;;1.80;1.70;;;;;;;;;;5066496;28;20311;-79
2023/01/08 08:20:26;;;;;;;3.43;1.60;;;;;;;;;;5067836;28;20184;-79
2023/01/08 08:22:51;;;;;;;1.53;1.43;;;;;;;;;;5072163;28;20180;-79
2023/01/08 08:25:17;;;;;;;1.40;1.30;;;;;;;;;;5065113;28;20184;-78
2023/01/08 08:27:43;;;;;;;1.30;1.20;;;;;;;;;;5072501;28;20175;-79
2023/01/08 08:30:09;;;;;;;1.57;1.47;;;;;;;;;;5061584;28;20221;-78
2023/01/08 08:32:35;;;;;;;1.47;1.37;;;;;;;;;;5071222;28;20184;-79
2023/01/08 08:35:01;;;;;;;1.50;1.40;;;;;;;;;;5063038;28;20228;-78
2023/01/08 08:37:26;;;;;;;1.20;1.10;;;;;;;;;;5062439;28;20342;-78
2023/01/08 08:39:51;;;;;;;1.23;1.13;;;;;;;;;;5062324;28;20240;-79
2023/01/08 08:42:16;;;;;;;1.30;1.20;;;;;;;;;;5067964;28;20203;-79
2023/01/08 08:44:42;;;;;;;1.30;1.20;;;;;;;;;;5066088;28;20192;-79
2023/01/08 08:47:08;;;;;;;3.00;1.20;;;;;;;;;;5066543;28;20179;-79
2023/01/08 08:49:33;;;;;;;1.17;1.10;;;;;;;;;;5060578;28;20219;-79
2023/01/08 08:51:58;;;;;;;1.30;1.20;;;;;;;;;;5059017;28;20205;-78
2023/01/08 08:54:23;;;;;;;1.73;1.40;;;;;;;;;;5081736;28;20185;-79
2023/01/08 08:56:48;;;;;;;1.47;1.30;;;;;;;;;;5065098;28;20184;-78
2023/01/08 08:59:14;;;;;;;1.53;1.43;;;;;;;;;;5065408;28;20220;-78
2023/01/08 09:01:39;;;;;;;1.93;1.83;;;;;;;;;;5064865;28;20183;-79
2023/01/08 09:04:04;;;;;;;3.20;3.00;;;;;;;;;;5069160;28;20184;-78
2023/01/08 09:06:30;;;;;;;1.40;1.30;;;;;;;;;;5068623;28;20186;-79
2023/01/08 09:08:56;;;;;;;1.83;1.73;;;;;;;;;;5065755;28;20191;-78
2023/01/08 09:11:21;;;;;;;1.50;1.40;;;;;;;;;;5068376;28;20178;-78
2023/01/08 09:13:46;;;;;;;1.67;1.57;;;;;;;;;;5064733;28;20212;-78
2023/01/08 09:16:11;;;;;;;1.60;1.50;;;;;;;;;;5066850;28;20181;-80
2023/01/08 09:18:36;;;;;;;1.27;1.17;;;;;;;;;;5067472;28;20299;-78
2023/01/08 09:21:05;;;;;;;2.07;1.97;;;;;;;;;;5064735;28;20203;-79
2023/01/08 09:23:31;;;;;;;3.40;3.20;;;;;;;;;;5062534;28;20174;-78
2023/01/08 09:26:03;;;;;;;1.77;1.50;;;;;;;;;;5058156;28;20180;-79
2023/01/08 09:28:28;;;;;;;1.60;1.50;;;;;;;;;;5056137;28;20268;-79
2023/01/08 09:30:53;;;;;;;3.13;2.60;;;;;;;;;;5063046;28;20267;-79
2023/01/08 09:33:19;;;;;;;2.00;1.90;;;;;;;;;;5056751;28;20179;-79
2023/01/08 09:35:44;;;;;;;1.37;1.27;;;;;;;;;;5058105;28;20216;-80
2023/01/08 09:38:09;;;;;;;2.97;2.77;;;;;;;;;;5059914;28;20240;-79
2023/01/08 09:40:37;;;;;;;2.20;1.63;;;;;;;;;;5054539;28;20206;-79
2023/01/08 09:43:05;;;;;;;1.60;1.50;;;;;;;;;;5057770;28;20211;-78
2023/01/08 09:45:31;;;;;;;1.20;1.13;;;;;;;;;;5055952;28;20191;-79
2023/01/08 09:47:58;;;;;;;1.47;1.37;;;;;;;;;;5058560;28;20190;-79
2023/01/08 09:50:25;;;;;;;1.47;1.33;;;;;;;;;;5042318;28;20197;-79
2023/01/08 09:52:50;;;;;;;1.30;1.20;;;;;;;;;;5055641;28;20177;-80
2023/01/08 09:55:15;;;;;;;1.20;1.10;;;;;;;;;;5058544;28;20197;-79
2023/01/08 09:57:42;;;;;;;1.00;1.00;;;;;;;;;;5053915;28;20218;-79
2023/01/08 10:00:12;;;;;;;1.50;1.40;;;;;;;;;;5054377;28;20181;-79
2023/01/08 10:02:38;;;;;;;1.07;1.07;;;;;;;;;;5058336;28;20189;-78
2023/01/08 10:05:09;;;;;;;1.07;1.07;;;;;;;;;;5053132;28;20194;-79
2023/01/08 10:07:35;;;;;;;1.00;1.00;;;;;;;;;;5059459;28;20218;-79
2023/01/08 10:10:00;;;;;;;1.20;1.10;;;;;;;;;;5057195;28;20270;-78
2023/01/08 10:12:27;;;;;;;1.23;1.13;;;;;;;;;;5057155;28;20188;-79
2023/01/08 10:14:53;;;;;;;1.20;1.10;;;;;;;;;;5055152;28;20270;-79
2023/01/08 10:17:38;;;;;;;0.90;0.90;;;;;;;;;;5058142;28;20201;-79
2023/01/08 10:20:11;;;;;;;0.97;0.97;;;;;;;;;;5058092;28;20366;-80
2023/01/08 10:22:36;;;;;;;1.37;1.27;;;;;;;;;;5067665;28;20181;-79
2023/01/08 10:25:04;;;;;;;1.30;1.20;;;;;;;;;;5055374;28;20265;-79
2023/01/08 10:27:29;;;;;;;1.20;1.10;;;;;;;;;;5071059;28;20244;-79
2023/01/08 10:30:03;;;;;;;2.30;1.20;;;;;;;;;;5056488;28;20209;-78
2023/01/08 10:32:29;;;;;;;0.97;0.97;;;;;;;;;;5068731;28;20182;-79
2023/01/08 10:34:56;;;;;;;1.20;1.10;;;;;;;;;;5056982;28;20233;-79
2023/01/08 10:37:24;;;;;;;0.87;0.87;;;;;;;;;;5068337;28;20213;-79
2023/01/08 10:39:50;;;;;;;1.20;1.10;;;;;;;;;;5056192;28;20190;-81
2023/01/08 10:42:16;;;;;;;15.03;9.33;;;;;;;;;;5060857;28;20180;-79
2023/01/08 10:44:50;;;;;;;6.67;4.80;;;;;;;;;;5057137;28;20204;-79
2023/01/08 10:47:16;;;;;;;2.70;1.83;;;;;;;;;;5056692;28;20213;-80
2023/01/08 10:49:42;;;;;;;2.13;2.03;;;;;;;;;;5052602;28;20241;-79
2023/01/08 10:52:21;;;;;;;1.20;1.20;;;;;;;;;;5068070;28;20201;-80
2023/01/08 10:54:47;;;;;;;1.70;1.60;;;;;;;;;;5059889;28;20196;-79
2023/01/08 10:57:26;;;;;;;3.70;3.37;;;;;;;;;;5068123;28;20233;-80
2023/01/08 10:59:51;;;;;;;60.90;29.13;;;;;;;;;;5050333;28;20212;-79
2023/01/08 11:02:22;;;;;;;32.13;14.83;;;;;;;;;;5058909;28;20269;-80
2023/01/08 11:04:50;;;;;;;22.13;12.23;;;;;;;;;;5043942;28;20181;-80
2023/01/08 11:07:17;;;;;;;17.67;10.73;;;;;;;;;;5045938;28;20288;-79
2023/01/08 11:09:46;;;;;;;42.80;22.37;;;;;;;;;;5061849;28;20182;-79
2023/01/08 11:12:30;;;;;;;50.10;25.83;;;;;;;;;;5043028;28;20189;-80
2023/01/08 11:14:56;;;;;;;11.83;6.00;;;;;;;;;;5050871;28;20182;-80
2023/01/08 11:17:24;;;;;;;44.53;24.73;;;;;;;;;;5052704;28;20214;-80
2023/01/08 11:19:49;;;;;;;3.47;2.03;;;;;;;;;;5067575;28;20178;-80
2023/01/08 11:22:18;;;;;;;1.77;1.60;;;;;;;;;;5045580;28;20187;-80
2023/01/08 11:24:44;;;;;;;2.07;1.73;;;;;;;;;;5049789;28;20180;-79
2023/01/08 11:27:12;;;;;;;25.67;16.90;;;;;;;;;;5063160;28;20184;-79
2023/01/08 11:29:47;;;;;;;2.00;1.80;;;;;;;;;;5055061;28;20182;-79
2023/01/08 11:32:27;;;;;;;2.93;2.73;;;;;;;;;;5048947;28;20182;-79
2023/01/08 11:34:53;;;;;;;1.10;1.10;;;;;;;;;;5069598;28;20224;-80
2023/01/08 11:37:19;;;;;;;2.00;1.80;;;;;;;;;;5060582;28;20208;-80
2023/01/08 11:39:45;;;;;;;2.30;2.10;;;;;;;;;;5047968;28;20193;-79
2023/01/08 11:42:16;;;;;;;2.00;1.80;;;;;;;;;;5048467;28;20178;-79
2023/01/08 11:45:00;;;;;;;1.30;1.20;;;;;;;;;;5057305;28;20193;-79
2023/01/08 11:47:28;;;;;;;0.83;0.83;;;;;;;;;;5052002;28;20218;-79
2023/01/08 11:50:00;;;;;;;0.80;0.80;;;;;;;;;;5051776;28;20185;-79
2023/01/08 11:52:44;;;;;;;0.80;0.80;;;;;;;;;;5062704;28;20264;-80
2023/01/08 11:55:24;;;;;;;2.00;1.83;;;;;;;;;;5046713;28;20265;-79
2023/01/08 11:58:05;;;;;;;0.80;0.80;;;;;;;;;;5053778;28;20205;-80
2023/01/08 12:00:39;;;;;;;1.43;1.33;;;;;;;;;;5051836;28;20181;-80
2023/01/08 12:03:18;;;;;;;1.70;1.60;;;;;;;;;;5047622;28;20175;-79
2023/01/08 12:05:46;;;;;;;4.07;3.67;;;;;;;;;;5048255;28;20264;-80
2023/01/08 12:08:31;;;;;;;6.77;6.03;;;;;;;;;;5049943;28;20191;-80
2023/01/08 12:10:59;;;;;;;1.70;1.60;;;;;;;;;;5048018;28;20242;-80
2023/01/08 12:13:42;;;;;;;1.00;1.00;;;;;;;;;;5049582;28;20252;-80
2023/01/08 12:16:13;;;;;;;2.90;2.70;;;;;;;;;;5051238;28;20317;-80
2023/01/08 12:18:48;;;;;;;1.30;1.20;;;;;;;;;;5046450;28;20198;-80
2023/01/08 12:21:29;;;;;;;1.70;1.60;;;;;;;;;;5052437;28;20176;-80
2023/01/08 12:23:55;;;;;;;2.40;1.70;;;;;;;;;;5060096;28;20216;-81
2023/01/08 12:26:29;;;;;;;0.73;0.73;;;;;;;;;;5045742;28;20190;-80
2023/01/08 12:28:54;;;;;;;1.13;1.03;;;;;;;;;;5058886;28;20271;-80
2023/01/08 12:31:27;;;;;;;0.90;0.90;;;;;;;;;;5047616;28;20248;-80
2023/01/08 12:33:52;;;;;;;0.90;0.90;;;;;;;;;;5061541;28;20257;-80
2023/01/08 12:36:20;;;;;;;1.65;1.33;;;;;;;;;;5045633;28;20826;-81
2023/01/08 12:38:50;;;;;;;1.90;1.20;;;;;;;;;;5055225;28;20190;-80
2023/01/08 12:41:17;;;;;;;1.00;1.00;;;;;;;;;;5046289;28;20296;-80
2023/01/08 12:44:00;;;;;;;0.80;0.80;;;;;;;;;;5052063;28;20189;-81
2023/01/08 12:46:29;;;;;;;0.73;0.73;;;;;;;;;;5060654;28;20366;-81
2023/01/08 12:48:55;;;;;;;0.90;0.90;;;;;;;;;;5064805;28;20522;-80
2023/01/08 12:51:38;;;;;;;0.83;0.80;;;;;;;;;;5062111;28;20195;-79
2023/01/08 12:54:03;;;;;;;1.50;1.30;;;;;;;;;;5043799;28;20239;-80
2023/01/08 12:56:30;;;;;;;0.70;0.70;;;;;;;;;;5044567;28;20189;-80
2023/01/08 12:59:14;;;;;;;1.67;1.50;;;;;;;;;;5047531;28;20209;-80
2023/01/08 13:01:43;;;;;;;2.30;2.10;;;;;;;;;;5047914;28;20186;-80
2023/01/08 13:04:09;;;;;;;1.00;0.90;;;;;;;;;;5050202;28;20185;-80
2023/01/08 13:06:34;;;;;;;1.10;1.00;;;;;;;;;;5048146;28;20192;-80
2023/01/08 13:08:59;;;;;;;1.07;0.90;;;;;;;;;;5063315;28;20173;-80
2023/01/08 13:11:27;;;;;;;1.03;1.03;;;;;;;;;;5045284;28;20190;-80
2023/01/08 13:14:03;;;;;;;1.13;1.07;;;;;;;;;;5050594;28;20174;-81
2023/01/08 13:16:30;;;;;;;1.00;1.00;;;;;;;;;;5061030;28;20265;-80
2023/01/08 13:18:57;;;;;;;1.27;0.70;;;;;;;;;;5045535;28;20213;-81
2023/01/08 13:21:30;;;;;;;1.40;1.30;;;;;;;;;;5048701;28;20229;-81
2023/01/08 13:24:00;;;;;;;1.67;0.70;;;;;;;;;;5047375;28;20236;-80
2023/01/08 13:26:30;;;;;;;2.40;1.97;;;;;;;;;;5044626;28;20188;-81
2023/01/08 13:29:04;;;;;;;1.00;1.00;;;;;;;;;;5044065;28;20263;-80
2023/01/08 13:31:37;;;;;;;1.10;1.00;;;;;;;;;;5051738;28;20181;-80
2023/01/08 13:34:16;;;;;;;2.33;1.93;;;;;;;;;;5059039;28;20282;-80
2023/01/08 13:36:41;;;;;;;3.30;2.00;;;;;;;;;;5059386;28;20198;-81
2023/01/08 13:39:10;;;;;;;1.20;1.10;;;;;;;;;;5045958;28;20271;-80
2023/01/08 13:41:38;;;;;;;2.07;1.67;;;;;;;;;;5048782;28;20182;-81
2023/01/08 13:44:05;;;;;;;1.20;1.10;;;;;;;;;;5050018;28;20182;-80
2023/01/08 13:46:30;;;;;;;1.13;0.90;;;;;;;;;;5048193;28;20182;-80
2023/01/08 13:48:56;;;;;;;1.20;1.10;;;;;;;;;;5061867;28;20192;-80
2023/01/08 13:51:27;;;;;;;0.90;0.90;;;;;;;;;;5049138;28;20182;-80
2023/01/08 13:53:52;;;;;;;1.83;1.40;;;;;;;;;;5050149;28;20191;-80
2023/01/08 13:56:20;;;;;;;1.27;1.10;;;;;;;;;;5043300;28;20181;-81
2023/01/08 13:58:50;;;;;;;1.17;1.10;;;;;;;;;;5044799;28;20204;-81
2023/01/08 14:01:15;;;;;;;1.50;1.03;;;;;;;;;;5049219;28;20186;-80
2023/01/08 14:03:45;;;;;;;1.03;1.00;;;;;;;;;;5058985;28;20201;-80
2023/01/08 14:06:16;;;;;;;1.43;1.33;;;;;;;;;;5045659;28;20248;-80
2023/01/08 14:08:51;;;;;;;1.30;1.20;;;;;;;;;;5050802;28;20236;-80
2023/01/08 14:11:17;;;;;;;1.27;1.17;;;;;;;;;;5051229;28;20191;-80
2023/01/08 14:13:43;;;;;;;1.17;1.07;;;;;;;;;;5044836;28;20192;-80
2023/01/08 14:16:10;;;;;;;2.20;1.50;;;;;;;;;;5046376;28;20182;-81
2023/01/08 14:18:38;;;;;;;0.57;0.57;;;;;;;;;;5061552;28;20214;-80
2023/01/08 14:21:04;;;;;;;0.80;0.80;;;;;;;;;;5047730;28;20173;-80
2023/01/08 14:23:31;;;;;;;0.70;0.70;;;;;;;;;;5047885;28;20174;-81
2023/01/08 14:25:58;;;;;;;0.90;0.90;;;;;;;;;;5042925;28;20192;-80
2023/01/08 14:28:23;;;;;;;1.37;1.23;;;;;;;;;;5062984;28;20182;-80
2023/01/08 14:30:53;;;;;;;1.17;1.07;;;;;;;;;;5045478;28;20189;-80
2023/01/08 14:33:21;;;;;;;0.97;0.87;;;;;;;;;;5046900;28;20240;-81
2023/01/08 14:35:48;;;;;;;1.03;1.03;;;;;;;;;;5047705;28;20316;-80
2023/01/08 14:38:14;;;;;;;3.53;3.23;;;;;;;;;;5061586;28;20204;-81
2023/01/08 14:40:41;;;;;;;2.43;2.23;;;;;;;;;;5057706;28;20187;-80
2023/01/08 14:43:11;;;;;;;1.90;1.80;;;;;;;;;;5047040;28;20298;-80
2023/01/08 14:45:37;;;;;;;0.83;0.83;;;;;;;;;;5049952;28;20188;-81